sensor_id;sensor_type;location;lat;lon;timestamp;P1;durP1;ratioP1;P2;durP2;ratioP2
43891;SDS011;29555;45.350;5.578;2023-02-08T00:01:54;35.17;;;19.40;;
43891;SDS011;29555;45.350;5.578;2023-02-08T00:04:20;35.85;;;18.27;;
43891;SDS011;29555;45.350;5.578;2023-02-08T00:06:45;40.50;;;20.23;;
43891;SDS011;29555;45.350;5.578;2023-02-08T00:09:10;37.90;;;21.85;;
43891;SDS011;29555;45.350;5.578;2023-02-08T00:11:36;43.65;;;19.02;;
43891;SDS011;29555;45.350;5.578;2023-02-08T00:14:01;35.28;;;16.65;;
43891;SDS011;29555;45.350;5.578;2023-02-08T00:16:27;36.97;;;16.95;;
43891;SDS011;29555;45.350;5.578;2023-02-08T00:18:52;33.60;;;15.77;;
43891;SDS011;29555;45.350;5.578;2023-02-08T00:21:18;31.88;;;15.50;;
43891;SDS011;29555;45.350;5.578;2023-02-08T00:23:44;22.75;;;15.18;;
43891;SDS011;29555;45.350;5.578;2023-02-08T00:26:10;29.88;;;15.55;;
43891;SDS011;29555;45.350;5.578;2023-02-08T00:28:36;27.27;;;15.20;;
43891;SDS011;29555;45.350;5.578;2023-02-08T00:31:01;25.15;;;14.18;;
43891;SDS011;29555;45.350;5.578;2023-02-08T00:33:27;33.17;;;15.30;;
43891;SDS011;29555;45.350;5.578;2023-02-08T00:35:59;28.40;;;14.48;;
43891;SDS011;29555;45.350;5.578;2023-02-08T00:40:51;25.10;;;13.95;;
43891;SDS011;29555;45.350;5.578;2023-02-08T00:43:16;33.53;;;15.50;;
43891;SDS011;29555;45.350;5.578;2023-02-08T00:45:42;29.75;;;16.90;;
43891;SDS011;29555;45.350;5.578;2023-02-08T00:48:07;25.40;;;15.02;;
43891;SDS011;29555;45.350;5.578;2023-02-08T00:50:32;28.42;;;15.68;;
43891;SDS011;29555;45.350;5.578;2023-02-08T00:52:58;26.25;;;16.40;;
43891;SDS011;29555;45.350;5.578;2023-02-08T00:55:24;32.10;;;14.35;;
43891;SDS011;29555;45.350;5.578;2023-02-08T00:57:49;28.58;;;15.35;;
43891;SDS011;29555;45.350;5.578;2023-02-08T01:00:14;30.48;;;15.30;;
43891;SDS011;29555;45.350;5.578;2023-02-08T01:02:40;25.27;;;16.67;;
43891;SDS011;29555;45.350;5.578;2023-02-08T01:05:05;28.27;;;14.25;;
43891;SDS011;29555;45.350;5.578;2023-02-08T01:07:31;21.33;;;13.88;;
43891;SDS011;29555;45.350;5.578;2023-02-08T01:09:56;25.70;;;14.55;;
43891;SDS011;29555;45.350;5.578;2023-02-08T01:12:22;30.30;;;15.20;;
43891;SDS011;29555;45.350;5.578;2023-02-08T01:14:48;28.05;;;13.75;;
43891;SDS011;29555;45.350;5.578;2023-02-08T01:17:14;32.65;;;16.00;;
43891;SDS011;29555;45.350;5.578;2023-02-08T01:19:39;33.35;;;15.88;;
43891;SDS011;29555;45.350;5.578;2023-02-08T01:22:05;30.35;;;15.98;;
43891;SDS011;29555;45.350;5.578;2023-02-08T01:24:30;29.40;;;14.45;;
43891;SDS011;29555;45.350;5.578;2023-02-08T01:26:55;24.15;;;15.40;;
43891;SDS011;29555;45.350;5.578;2023-02-08T01:29:21;26.80;;;15.77;;
43891;SDS011;29555;45.350;5.578;2023-02-08T01:31:46;36.17;;;20.25;;
43891;SDS011;29555;45.350;5.578;2023-02-08T01:34:12;37.20;;;16.60;;
43891;SDS011;29555;45.350;5.578;2023-02-08T01:36:37;31.58;;;15.55;;
43891;SDS011;29555;45.350;5.578;2023-02-08T01:39:04;26.58;;;14.18;;
43891;SDS011;29555;45.350;5.578;2023-02-08T01:41:32;33.20;;;15.15;;
43891;SDS011;29555;45.350;5.578;2023-02-08T01:46:34;27.15;;;13.15;;
43891;SDS011;29555;45.350;5.578;2023-02-08T01:49:02;27.23;;;14.30;;
43891;SDS011;29555;45.350;5.578;2023-02-08T01:51:34;40.00;;;15.60;;
43891;SDS011;29555;45.350;5.578;2023-02-08T01:54:03;25.05;;;15.25;;
43891;SDS011;29555;45.350;5.578;2023-02-08T01:56:31;27.83;;;14.48;;
43891;SDS011;29555;45.350;5.578;2023-02-08T01:59:01;27.73;;;14.63;;
43891;SDS011;29555;45.350;5.578;2023-02-08T02:01:29;32.30;;;14.30;;
43891;SDS011;29555;45.350;5.578;2023-02-08T02:03:56;21.17;;;12.65;;
43891;SDS011;29555;45.350;5.578;2023-02-08T02:06:26;29.70;;;16.65;;
43891;SDS011;29555;45.350;5.578;2023-02-08T02:09:00;32.05;;;14.70;;
43891;SDS011;29555;45.350;5.578;2023-02-08T02:11:31;32.88;;;14.52;;
43891;SDS011;29555;45.350;5.578;2023-02-08T02:13:57;28.40;;;14.68;;
43891;SDS011;29555;45.350;5.578;2023-02-08T02:16:23;24.33;;;14.18;;
43891;SDS011;29555;45.350;5.578;2023-02-08T02:18:48;29.85;;;13.98;;
43891;SDS011;29555;45.350;5.578;2023-02-08T02:29:52;26.35;;;14.95;;
43891;SDS011;29555;45.350;5.578;2023-02-08T02:32:38;28.52;;;15.60;;
43891;SDS011;29555;45.350;5.578;2023-02-08T02:41:05;28.88;;;15.88;;
43891;SDS011;29555;45.350;5.578;2023-02-08T02:43:41;28.63;;;14.43;;
43891;SDS011;29555;45.350;5.578;2023-02-08T02:51:42;25.95;;;16.10;;
43891;SDS011;29555;45.350;5.578;2023-02-08T02:57:05;28.13;;;14.25;;
43891;SDS011;29555;45.350;5.578;2023-02-08T02:59:34;25.95;;;13.32;;
43891;SDS011;29555;45.350;5.578;2023-02-08T03:02:02;27.77;;;13.45;;
43891;SDS011;29555;45.350;5.578;2023-02-08T03:16:01;22.13;;;13.60;;
43891;SDS011;29555;45.350;5.578;2023-02-08T03:21:05;26.63;;;14.73;;
43891;SDS011;29555;45.350;5.578;2023-02-08T03:23:37;26.95;;;13.70;;
43891;SDS011;29555;45.350;5.578;2023-02-08T03:31:14;26.65;;;14.68;;
43891;SDS011;29555;45.350;5.578;2023-02-08T03:36:41;23.33;;;12.68;;
43891;SDS011;29555;45.350;5.578;2023-02-08T03:39:16;22.75;;;13.88;;
43891;SDS011;29555;45.350;5.578;2023-02-08T03:41:46;24.63;;;13.13;;
43891;SDS011;29555;45.350;5.578;2023-02-08T03:44:16;23.92;;;13.95;;
43891;SDS011;29555;45.350;5.578;2023-02-08T03:46:50;26.23;;;12.38;;
43891;SDS011;29555;45.350;5.578;2023-02-08T03:49:24;23.15;;;12.57;;
43891;SDS011;29555;45.350;5.578;2023-02-08T03:51:55;25.13;;;13.68;;
43891;SDS011;29555;45.350;5.578;2023-02-08T03:54:23;21.98;;;13.70;;
43891;SDS011;29555;45.350;5.578;2023-02-08T03:57:34;23.77;;;13.45;;
43891;SDS011;29555;45.350;5.578;2023-02-08T03:59:45;26.73;;;12.75;;
43891;SDS011;29555;45.350;5.578;2023-02-08T04:02:16;24.63;;;14.38;;
43891;SDS011;29555;45.350;5.578;2023-02-08T04:04:45;27.17;;;12.20;;
43891;SDS011;29555;45.350;5.578;2023-02-08T04:07:12;20.88;;;12.52;;
43891;SDS011;29555;45.350;5.578;2023-02-08T04:09:38;26.85;;;13.48;;
43891;SDS011;29555;45.350;5.578;2023-02-08T04:12:04;28.20;;;14.57;;
43891;SDS011;29555;45.350;5.578;2023-02-08T04:14:30;19.48;;;12.02;;
43891;SDS011;29555;45.350;5.578;2023-02-08T04:16:55;24.42;;;12.80;;
43891;SDS011;29555;45.350;5.578;2023-02-08T04:19:21;22.60;;;13.10;;
43891;SDS011;29555;45.350;5.578;2023-02-08T04:21:46;29.85;;;13.13;;
43891;SDS011;29555;45.350;5.578;2023-02-08T04:24:11;23.38;;;13.25;;
43891;SDS011;29555;45.350;5.578;2023-02-08T04:26:37;22.52;;;12.82;;
43891;SDS011;29555;45.350;5.578;2023-02-08T04:29:02;23.17;;;13.43;;
43891;SDS011;29555;45.350;5.578;2023-02-08T04:31:28;24.38;;;13.15;;
43891;SDS011;29555;45.350;5.578;2023-02-08T04:33:53;17.42;;;11.95;;
43891;SDS011;29555;45.350;5.578;2023-02-08T04:36:19;26.05;;;14.45;;
43891;SDS011;29555;45.350;5.578;2023-02-08T04:38:44;21.63;;;13.90;;
43891;SDS011;29555;45.350;5.578;2023-02-08T04:41:09;21.30;;;11.50;;
43891;SDS011;29555;45.350;5.578;2023-02-08T04:43:35;25.05;;;13.02;;
43891;SDS011;29555;45.350;5.578;2023-02-08T04:46:01;22.40;;;12.98;;
43891;SDS011;29555;45.350;5.578;2023-02-08T04:48:26;26.63;;;13.73;;
43891;SDS011;29555;45.350;5.578;2023-02-08T04:50:55;23.20;;;13.13;;
43891;SDS011;29555;45.350;5.578;2023-02-08T04:53:21;20.48;;;11.68;;
43891;SDS011;29555;45.350;5.578;2023-02-08T04:55:47;23.58;;;12.70;;
43891;SDS011;29555;45.350;5.578;2023-02-08T04:58:13;20.48;;;12.50;;
43891;SDS011;29555;45.350;5.578;2023-02-08T05:00:38;28.40;;;14.38;;
43891;SDS011;29555;45.350;5.578;2023-02-08T05:03:04;24.25;;;13.40;;
43891;SDS011;29555;45.350;5.578;2023-02-08T05:05:29;28.23;;;14.95;;
43891;SDS011;29555;45.350;5.578;2023-02-08T05:07:54;30.63;;;14.25;;
43891;SDS011;29555;45.350;5.578;2023-02-08T05:10:20;24.17;;;13.10;;
43891;SDS011;29555;45.350;5.578;2023-02-08T05:12:46;22.40;;;12.93;;
43891;SDS011;29555;45.350;5.578;2023-02-08T05:15:11;26.33;;;13.20;;
43891;SDS011;29555;45.350;5.578;2023-02-08T05:17:37;26.15;;;13.25;;
43891;SDS011;29555;45.350;5.578;2023-02-08T05:20:03;25.30;;;13.05;;
43891;SDS011;29555;45.350;5.578;2023-02-08T05:22:30;33.58;;;15.27;;
43891;SDS011;29555;45.350;5.578;2023-02-08T05:24:56;24.85;;;14.98;;
43891;SDS011;29555;45.350;5.578;2023-02-08T05:27:21;80.55;;;30.27;;
43891;SDS011;29555;45.350;5.578;2023-02-08T05:29:47;55.95;;;20.33;;
43891;SDS011;29555;45.350;5.578;2023-02-08T05:32:12;63.33;;;26.20;;
43891;SDS011;29555;45.350;5.578;2023-02-08T05:34:38;102.47;;;37.00;;
43891;SDS011;29555;45.350;5.578;2023-02-08T05:37:03;23.00;;;15.77;;
43891;SDS011;29555;45.350;5.578;2023-02-08T05:39:29;38.38;;;18.98;;
43891;SDS011;29555;45.350;5.578;2023-02-08T05:41:54;41.08;;;21.80;;
43891;SDS011;29555;45.350;5.578;2023-02-08T05:44:20;39.42;;;19.20;;
43891;SDS011;29555;45.350;5.578;2023-02-08T05:46:46;30.48;;;16.10;;
43891;SDS011;29555;45.350;5.578;2023-02-08T05:49:11;26.70;;;15.40;;
43891;SDS011;29555;45.350;5.578;2023-02-08T05:51:37;24.20;;;13.95;;
43891;SDS011;29555;45.350;5.578;2023-02-08T05:54:02;27.80;;;14.60;;
43891;SDS011;29555;45.350;5.578;2023-02-08T05:56:28;31.20;;;13.90;;
43891;SDS011;29555;45.350;5.578;2023-02-08T05:58:54;27.75;;;15.23;;
43891;SDS011;29555;45.350;5.578;2023-02-08T06:01:20;24.17;;;13.95;;
43891;SDS011;29555;45.350;5.578;2023-02-08T06:03:46;33.28;;;17.35;;
43891;SDS011;29555;45.350;5.578;2023-02-08T06:06:11;30.63;;;17.27;;
43891;SDS011;29555;45.350;5.578;2023-02-08T06:08:37;28.98;;;15.20;;
43891;SDS011;29555;45.350;5.578;2023-02-08T06:11:04;32.85;;;15.68;;
43891;SDS011;29555;45.350;5.578;2023-02-08T06:13:30;27.70;;;17.98;;
43891;SDS011;29555;45.350;5.578;2023-02-08T06:15:55;30.08;;;17.15;;
43891;SDS011;29555;45.350;5.578;2023-02-08T06:18:21;25.27;;;15.38;;
43891;SDS011;29555;45.350;5.578;2023-02-08T06:20:47;22.85;;;14.60;;
43891;SDS011;29555;45.350;5.578;2023-02-08T06:23:13;29.67;;;16.02;;
43891;SDS011;29555;45.350;5.578;2023-02-08T06:25:38;26.80;;;15.75;;
43891;SDS011;29555;45.350;5.578;2023-02-08T06:28:04;44.90;;;21.13;;
43891;SDS011;29555;45.350;5.578;2023-02-08T06:30:29;44.20;;;21.95;;
43891;SDS011;29555;45.350;5.578;2023-02-08T06:32:55;37.03;;;19.95;;
43891;SDS011;29555;45.350;5.578;2023-02-08T06:35:21;64.00;;;30.02;;
43891;SDS011;29555;45.350;5.578;2023-02-08T06:37:46;66.40;;;28.90;;
43891;SDS011;29555;45.350;5.578;2023-02-08T06:40:11;151.88;;;59.97;;
43891;SDS011;29555;45.350;5.578;2023-02-08T06:42:37;262.33;;;94.38;;
43891;SDS011;29555;45.350;5.578;2023-02-08T06:45:02;176.57;;;68.78;;
43891;SDS011;29555;45.350;5.578;2023-02-08T06:47:28;223.93;;;87.93;;
43891;SDS011;29555;45.350;5.578;2023-02-08T06:49:54;206.23;;;83.20;;
43891;SDS011;29555;45.350;5.578;2023-02-08T06:52:19;153.57;;;66.30;;
43891;SDS011;29555;45.350;5.578;2023-02-08T06:54:45;237.90;;;88.97;;
43891;SDS011;29555;45.350;5.578;2023-02-08T06:57:11;196.13;;;78.85;;
43891;SDS011;29555;45.350;5.578;2023-02-08T06:59:37;205.32;;;80.50;;
43891;SDS011;29555;45.350;5.578;2023-02-08T07:02:09;197.40;;;79.75;;
43891;SDS011;29555;45.350;5.578;2023-02-08T07:04:36;183.43;;;68.85;;
43891;SDS011;29555;45.350;5.578;2023-02-08T07:07:02;158.30;;;60.85;;
43891;SDS011;29555;45.350;5.578;2023-02-08T07:09:31;106.38;;;49.05;;
43891;SDS011;29555;45.350;5.578;2023-02-08T07:11:58;100.38;;;44.42;;
43891;SDS011;29555;45.350;5.578;2023-02-08T07:14:23;93.90;;;39.05;;
43891;SDS011;29555;45.350;5.578;2023-02-08T07:16:48;89.53;;;42.35;;
43891;SDS011;29555;45.350;5.578;2023-02-08T07:19:14;95.82;;;40.60;;
43891;SDS011;29555;45.350;5.578;2023-02-08T07:21:39;77.85;;;37.05;;
43891;SDS011;29555;45.350;5.578;2023-02-08T07:24:04;120.45;;;51.65;;
43891;SDS011;29555;45.350;5.578;2023-02-08T07:26:30;126.15;;;53.08;;
43891;SDS011;29555;45.350;5.578;2023-02-08T07:28:56;91.47;;;38.28;;
43891;SDS011;29555;45.350;5.578;2023-02-08T07:31:22;63.25;;;29.60;;
43891;SDS011;29555;45.350;5.578;2023-02-08T07:33:47;95.50;;;44.08;;
43891;SDS011;29555;45.350;5.578;2023-02-08T07:36:13;53.97;;;30.15;;
43891;SDS011;29555;45.350;5.578;2023-02-08T07:38:39;50.90;;;29.98;;
43891;SDS011;29555;45.350;5.578;2023-02-08T07:41:09;45.53;;;23.45;;
43891;SDS011;29555;45.350;5.578;2023-02-08T07:43:37;37.73;;;24.00;;
43891;SDS011;29555;45.350;5.578;2023-02-08T07:46:06;36.95;;;19.98;;
43891;SDS011;29555;45.350;5.578;2023-02-08T07:48:35;32.88;;;20.58;;
43891;SDS011;29555;45.350;5.578;2023-02-08T07:51:00;32.63;;;18.80;;
43891;SDS011;29555;45.350;5.578;2023-02-08T07:53:26;33.08;;;20.33;;
43891;SDS011;29555;45.350;5.578;2023-02-08T07:55:52;46.00;;;23.25;;
43891;SDS011;29555;45.350;5.578;2023-02-08T07:58:17;84.82;;;38.30;;
43891;SDS011;29555;45.350;5.578;2023-02-08T08:00:43;52.65;;;25.70;;
43891;SDS011;29555;45.350;5.578;2023-02-08T08:03:08;54.03;;;25.48;;
43891;SDS011;29555;45.350;5.578;2023-02-08T08:05:34;82.40;;;34.95;;
43891;SDS011;29555;45.350;5.578;2023-02-08T08:07:59;59.65;;;33.42;;
43891;SDS011;29555;45.350;5.578;2023-02-08T08:10:25;127.57;;;47.75;;
43891;SDS011;29555;45.350;5.578;2023-02-08T08:12:50;64.18;;;30.02;;
43891;SDS011;29555;45.350;5.578;2023-02-08T08:15:16;64.72;;;30.67;;
43891;SDS011;29555;45.350;5.578;2023-02-08T08:17:41;65.53;;;33.25;;
43891;SDS011;29555;45.350;5.578;2023-02-08T08:20:08;62.03;;;31.88;;
43891;SDS011;29555;45.350;5.578;2023-02-08T08:22:34;43.03;;;24.20;;
43891;SDS011;29555;45.350;5.578;2023-02-08T08:25:00;38.22;;;21.20;;
43891;SDS011;29555;45.350;5.578;2023-02-08T08:27:25;56.17;;;27.77;;
43891;SDS011;29555;45.350;5.578;2023-02-08T08:29:50;45.03;;;25.02;;
43891;SDS011;29555;45.350;5.578;2023-02-08T08:32:16;48.65;;;22.95;;
43891;SDS011;29555;45.350;5.578;2023-02-08T08:34:41;45.63;;;23.58;;
43891;SDS011;29555;45.350;5.578;2023-02-08T08:37:07;38.33;;;21.23;;
43891;SDS011;29555;45.350;5.578;2023-02-08T08:39:33;36.28;;;19.05;;
43891;SDS011;29555;45.350;5.578;2023-02-08T08:42:00;54.88;;;27.77;;
43891;SDS011;29555;45.350;5.578;2023-02-08T08:44:27;39.67;;;21.33;;
43891;SDS011;29555;45.350;5.578;2023-02-08T08:46:54;33.33;;;18.50;;
43891;SDS011;29555;45.350;5.578;2023-02-08T08:49:20;57.25;;;28.98;;
43891;SDS011;29555;45.350;5.578;2023-02-08T08:51:46;36.35;;;22.05;;
43891;SDS011;29555;45.350;5.578;2023-02-08T08:54:11;35.67;;;17.90;;
43891;SDS011;29555;45.350;5.578;2023-02-08T08:56:37;27.50;;;18.85;;
43891;SDS011;29555;45.350;5.578;2023-02-08T08:59:02;28.58;;;17.88;;
43891;SDS011;29555;45.350;5.578;2023-02-08T09:01:28;32.83;;;16.77;;
43891;SDS011;29555;45.350;5.578;2023-02-08T09:03:53;33.88;;;17.05;;
43891;SDS011;29555;45.350;5.578;2023-02-08T09:06:18;37.88;;;17.85;;
43891;SDS011;29555;45.350;5.578;2023-02-08T09:08:44;30.67;;;16.75;;
43891;SDS011;29555;45.350;5.578;2023-02-08T09:11:10;32.85;;;18.73;;
43891;SDS011;29555;45.350;5.578;2023-02-08T09:13:37;30.70;;;17.88;;
43891;SDS011;29555;45.350;5.578;2023-02-08T09:16:07;31.80;;;17.73;;
43891;SDS011;29555;45.350;5.578;2023-02-08T09:18:34;32.13;;;17.85;;
43891;SDS011;29555;45.350;5.578;2023-02-08T09:21:04;34.63;;;19.60;;
43891;SDS011;29555;45.350;5.578;2023-02-08T09:23:31;30.58;;;16.95;;
43891;SDS011;29555;45.350;5.578;2023-02-08T09:25:56;38.30;;;22.50;;
43891;SDS011;29555;45.350;5.578;2023-02-08T09:28:22;30.05;;;18.55;;
43891;SDS011;29555;45.350;5.578;2023-02-08T09:30:47;43.67;;;23.00;;
43891;SDS011;29555;45.350;5.578;2023-02-08T09:33:12;35.20;;;19.95;;
43891;SDS011;29555;45.350;5.578;2023-02-08T09:35:38;38.53;;;21.95;;
43891;SDS011;29555;45.350;5.578;2023-02-08T09:38:03;38.53;;;21.05;;
43891;SDS011;29555;45.350;5.578;2023-02-08T09:40:35;38.03;;;20.70;;
43891;SDS011;29555;45.350;5.578;2023-02-08T09:43:12;30.85;;;18.13;;
43891;SDS011;29555;45.350;5.578;2023-02-08T09:45:47;40.83;;;21.35;;
43891;SDS011;29555;45.350;5.578;2023-02-08T09:51:03;29.90;;;18.63;;
43891;SDS011;29555;45.350;5.578;2023-02-08T09:53:38;31.75;;;17.42;;
43891;SDS011;29555;45.350;5.578;2023-02-08T09:56:11;28.60;;;16.77;;
43891;SDS011;29555;45.350;5.578;2023-02-08T09:58:42;36.80;;;18.42;;
43891;SDS011;29555;45.350;5.578;2023-02-08T10:03:47;28.92;;;16.13;;
43891;SDS011;29555;45.350;5.578;2023-02-08T10:06:16;29.98;;;18.00;;
43891;SDS011;29555;45.350;5.578;2023-02-08T10:08:44;31.92;;;17.98;;
43891;SDS011;29555;45.350;5.578;2023-02-08T10:32:48;35.08;;;18.00;;
43891;SDS011;29555;45.350;5.578;2023-02-08T10:35:28;34.58;;;18.45;;
43891;SDS011;29555;45.350;5.578;2023-02-08T10:38:06;29.88;;;18.10;;
43891;SDS011;29555;45.350;5.578;2023-02-08T10:40:48;36.08;;;21.27;;
43891;SDS011;29555;45.350;5.578;2023-02-08T10:45:50;31.85;;;17.30;;
43891;SDS011;29555;45.350;5.578;2023-02-08T10:51:15;38.63;;;18.77;;
43891;SDS011;29555;45.350;5.578;2023-02-08T10:53:41;28.23;;;16.73;;
43891;SDS011;29555;45.350;5.578;2023-02-08T10:56:11;34.00;;;17.05;;
43891;SDS011;29555;45.350;5.578;2023-02-08T10:58:47;28.33;;;16.60;;
43891;SDS011;29555;45.350;5.578;2023-02-08T11:01:13;28.45;;;17.70;;
43891;SDS011;29555;45.350;5.578;2023-02-08T11:03:39;30.92;;;18.35;;
43891;SDS011;29555;45.350;5.578;2023-02-08T11:06:25;33.88;;;17.05;;
43891;SDS011;29555;45.350;5.578;2023-02-08T11:08:57;33.38;;;18.10;;
43891;SDS011;29555;45.350;5.578;2023-02-08T11:11:24;27.10;;;16.98;;
43891;SDS011;29555;45.350;5.578;2023-02-08T11:13:54;26.40;;;16.30;;
43891;SDS011;29555;45.350;5.578;2023-02-08T11:16:31;28.65;;;16.45;;
43891;SDS011;29555;45.350;5.578;2023-02-08T11:18:59;33.90;;;17.17;;
43891;SDS011;29555;45.350;5.578;2023-02-08T11:21:30;36.92;;;17.35;;
43891;SDS011;29555;45.350;5.578;2023-02-08T11:23:59;28.95;;;15.32;;
43891;SDS011;29555;45.350;5.578;2023-02-08T11:31:27;29.90;;;16.48;;
43891;SDS011;29555;45.350;5.578;2023-02-08T11:33:57;25.05;;;15.40;;
43891;SDS011;29555;45.350;5.578;2023-02-08T11:36:25;25.73;;;14.00;;
43891;SDS011;29555;45.350;5.578;2023-02-08T11:38:50;25.35;;;14.65;;
43891;SDS011;29555;45.350;5.578;2023-02-08T11:41:17;26.90;;;16.50;;
43891;SDS011;29555;45.350;5.578;2023-02-08T11:43:50;28.60;;;16.58;;
43891;SDS011;29555;45.350;5.578;2023-02-08T11:46:22;27.98;;;15.13;;
43891;SDS011;29555;45.350;5.578;2023-02-08T11:48:49;27.52;;;15.98;;
43891;SDS011;29555;45.350;5.578;2023-02-08T11:51:35;27.13;;;16.52;;
43891;SDS011;29555;45.350;5.578;2023-02-08T11:54:02;20.85;;;14.65;;
43891;SDS011;29555;45.350;5.578;2023-02-08T11:56:30;22.55;;;13.30;;
43891;SDS011;29555;45.350;5.578;2023-02-08T12:01:33;23.40;;;16.10;;
43891;SDS011;29555;45.350;5.578;2023-02-08T12:04:01;33.05;;;15.95;;
43891;SDS011;29555;45.350;5.578;2023-02-08T12:14:39;24.50;;;13.82;;
43891;SDS011;29555;45.350;5.578;2023-02-08T12:17:29;20.80;;;12.90;;
43891;SDS011;29555;45.350;5.578;2023-02-08T12:20:38;23.73;;;13.43;;
43891;SDS011;29555;45.350;5.578;2023-02-08T12:29:14;24.02;;;13.35;;
43891;SDS011;29555;45.350;5.578;2023-02-08T12:48:50;13.50;;;8.63;;
43891;SDS011;29555;45.350;5.578;2023-02-08T12:51:25;11.95;;;7.47;;
43891;SDS011;29555;45.350;5.578;2023-02-08T12:54:43;14.93;;;8.98;;
43891;SDS011;29555;45.350;5.578;2023-02-08T12:56:53;13.15;;;9.07;;
43891;SDS011;29555;45.350;5.578;2023-02-08T12:59:29;17.30;;;9.55;;
43891;SDS011;29555;45.350;5.578;2023-02-08T13:02:10;10.25;;;7.50;;
43891;SDS011;29555;45.350;5.578;2023-02-08T13:04:44;17.08;;;9.30;;
43891;SDS011;29555;45.350;5.578;2023-02-08T13:07:13;14.15;;;9.05;;
43891;SDS011;29555;45.350;5.578;2023-02-08T13:09:49;16.37;;;7.57;;
43891;SDS011;29555;45.350;5.578;2023-02-08T13:12:24;10.77;;;7.03;;
43891;SDS011;29555;45.350;5.578;2023-02-08T13:14:55;10.57;;;6.88;;
43891;SDS011;29555;45.350;5.578;2023-02-08T13:23:02;10.80;;;6.57;;
43891;SDS011;29555;45.350;5.578;2023-02-08T13:25:38;11.95;;;7.88;;
43891;SDS011;29555;45.350;5.578;2023-02-08T13:28:06;12.45;;;8.40;;
43891;SDS011;29555;45.350;5.578;2023-02-08T13:30:35;17.52;;;8.38;;
43891;SDS011;29555;45.350;5.578;2023-02-08T13:33:14;11.35;;;7.07;;
43891;SDS011;29555;45.350;5.578;2023-02-08T13:35:45;10.05;;;6.35;;
43891;SDS011;29555;45.350;5.578;2023-02-08T13:38:19;19.77;;;7.53;;
43891;SDS011;29555;45.350;5.578;2023-02-08T13:41:00;16.92;;;7.50;;
43891;SDS011;29555;45.350;5.578;2023-02-08T13:43:33;11.38;;;7.30;;
43891;SDS011;29555;45.350;5.578;2023-02-08T13:46:02;10.48;;;7.07;;
43891;SDS011;29555;45.350;5.578;2023-02-08T13:48:28;13.23;;;7.97;;
43891;SDS011;29555;45.350;5.578;2023-02-08T13:51:53;24.48;;;14.98;;
43891;SDS011;29555;45.350;5.578;2023-02-08T13:56:41;15.52;;;7.55;;
43891;SDS011;29555;45.350;5.578;2023-02-08T14:02:30;11.65;;;7.40;;
43891;SDS011;29555;45.350;5.578;2023-02-08T14:04:51;11.93;;;6.57;;
43891;SDS011;29555;45.350;5.578;2023-02-08T14:07:29;14.18;;;6.72;;
43891;SDS011;29555;45.350;5.578;2023-02-08T14:10:20;13.05;;;6.65;;
43891;SDS011;29555;45.350;5.578;2023-02-08T14:12:58;12.85;;;8.45;;
43891;SDS011;29555;45.350;5.578;2023-02-08T14:15:29;10.18;;;6.57;;
43891;SDS011;29555;45.350;5.578;2023-02-08T14:17:56;9.48;;;6.68;;
43891;SDS011;29555;45.350;5.578;2023-02-08T14:20:41;10.15;;;6.20;;
43891;SDS011;29555;45.350;5.578;2023-02-08T14:23:22;12.65;;;7.78;;
43891;SDS011;29555;45.350;5.578;2023-02-08T14:25:50;12.02;;;7.95;;
43891;SDS011;29555;45.350;5.578;2023-02-08T14:28:26;11.00;;;7.20;;
43891;SDS011;29555;45.350;5.578;2023-02-08T14:30:52;10.25;;;7.15;;
43891;SDS011;29555;45.350;5.578;2023-02-08T14:33:20;10.65;;;7.10;;
43891;SDS011;29555;45.350;5.578;2023-02-08T14:36:00;9.35;;;6.30;;
43891;SDS011;29555;45.350;5.578;2023-02-08T14:38:32;9.90;;;5.60;;
43891;SDS011;29555;45.350;5.578;2023-02-08T14:41:01;13.85;;;7.13;;
43891;SDS011;29555;45.350;5.578;2023-02-08T14:45:53;8.90;;;5.63;;
43891;SDS011;29555;45.350;5.578;2023-02-08T14:56:00;7.50;;;5.88;;
43891;SDS011;29555;45.350;5.578;2023-02-08T14:58:31;10.93;;;5.70;;
43891;SDS011;29555;45.350;5.578;2023-02-08T15:01:01;11.45;;;6.65;;
43891;SDS011;29555;45.350;5.578;2023-02-08T15:03:31;13.75;;;6.07;;
43891;SDS011;29555;45.350;5.578;2023-02-08T15:08:48;7.38;;;5.05;;
43891;SDS011;29555;45.350;5.578;2023-02-08T15:11:18;7.03;;;4.88;;
43891;SDS011;29555;45.350;5.578;2023-02-08T15:13:49;7.97;;;4.30;;
43891;SDS011;29555;45.350;5.578;2023-02-08T15:16:16;11.07;;;5.35;;
43891;SDS011;29555;45.350;5.578;2023-02-08T15:18:43;7.07;;;4.63;;
43891;SDS011;29555;45.350;5.578;2023-02-08T15:21:20;10.85;;;5.13;;
43891;SDS011;29555;45.350;5.578;2023-02-08T15:23:57;10.32;;;5.78;;
43891;SDS011;29555;45.350;5.578;2023-02-08T15:26:23;6.85;;;4.38;;
43891;SDS011;29555;45.350;5.578;2023-02-08T15:28:49;11.88;;;4.88;;
43891;SDS011;29555;45.350;5.578;2023-02-08T15:31:19;8.23;;;4.97;;
43891;SDS011;29555;45.350;5.578;2023-02-08T15:33:47;6.60;;;3.80;;
43891;SDS011;29555;45.350;5.578;2023-02-08T15:36:15;7.45;;;4.78;;
43891;SDS011;29555;45.350;5.578;2023-02-08T15:38:44;12.70;;;5.82;;
43891;SDS011;29555;45.350;5.578;2023-02-08T15:41:11;12.75;;;5.78;;
43891;SDS011;29555;45.350;5.578;2023-02-08T15:43:47;9.30;;;5.90;;
43891;SDS011;29555;45.350;5.578;2023-02-08T15:46:19;12.45;;;5.45;;
43891;SDS011;29555;45.350;5.578;2023-02-08T15:48:47;8.75;;;4.95;;
43891;SDS011;29555;45.350;5.578;2023-02-08T15:51:13;9.77;;;5.63;;
43891;SDS011;29555;45.350;5.578;2023-02-08T15:53:41;10.90;;;5.88;;
43891;SDS011;29555;45.350;5.578;2023-02-08T15:56:09;13.88;;;5.63;;
43891;SDS011;29555;45.350;5.578;2023-02-08T15:58:43;6.93;;;5.00;;
43891;SDS011;29555;45.350;5.578;2023-02-08T16:01:18;10.18;;;5.45;;
43891;SDS011;29555;45.350;5.578;2023-02-08T16:03:56;10.25;;;6.05;;
43891;SDS011;29555;45.350;5.578;2023-02-08T16:06:25;7.72;;;5.32;;
43891;SDS011;29555;45.350;5.578;2023-02-08T16:08:53;10.13;;;5.07;;
43891;SDS011;29555;45.350;5.578;2023-02-08T16:11:32;10.98;;;5.60;;
43891;SDS011;29555;45.350;5.578;2023-02-08T16:13:59;9.43;;;5.90;;
43891;SDS011;29555;45.350;5.578;2023-02-08T16:16:39;5.90;;;4.38;;
43891;SDS011;29555;45.350;5.578;2023-02-08T16:19:24;11.30;;;5.18;;
43891;SDS011;29555;45.350;5.578;2023-02-08T16:22:14;7.47;;;5.20;;
43891;SDS011;29555;45.350;5.578;2023-02-08T16:24:47;9.48;;;5.50;;
43891;SDS011;29555;45.350;5.578;2023-02-08T16:29:50;11.60;;;5.30;;
43891;SDS011;29555;45.350;5.578;2023-02-08T16:32:28;6.80;;;4.75;;
43891;SDS011;29555;45.350;5.578;2023-02-08T16:34:56;11.75;;;4.82;;
43891;SDS011;29555;45.350;5.578;2023-02-08T16:37:24;9.98;;;5.55;;
43891;SDS011;29555;45.350;5.578;2023-02-08T16:47:42;13.27;;;6.05;;
43891;SDS011;29555;45.350;5.578;2023-02-08T16:50:15;12.82;;;7.90;;
43891;SDS011;29555;45.350;5.578;2023-02-08T16:52:43;10.88;;;6.63;;
43891;SDS011;29555;45.350;5.578;2023-02-08T16:55:15;10.40;;;5.78;;
43891;SDS011;29555;45.350;5.578;2023-02-08T16:57:44;4.60;;;4.00;;
43891;SDS011;29555;45.350;5.578;2023-02-08T17:00:18;4.90;;;4.43;;
43891;SDS011;29555;45.350;5.578;2023-02-08T17:02:45;7.35;;;5.45;;
43891;SDS011;29555;45.350;5.578;2023-02-08T17:05:11;8.45;;;5.07;;
43891;SDS011;29555;45.350;5.578;2023-02-08T17:07:36;7.93;;;5.60;;
43891;SDS011;29555;45.350;5.578;2023-02-08T17:10:05;7.25;;;4.60;;
43891;SDS011;29555;45.350;5.578;2023-02-08T17:12:32;7.88;;;4.90;;